sensor_id;sensor_type;location;lat;lon;timestamp;pressure;altitude;pressure_sealevel;temperature;humidity
28630;BME280;15817;42.130;24.762;2022-07-06T00:00:47;99692.84;;;26.44;47.43
28630;BME280;15817;42.130;24.762;2022-07-06T00:03:13;99687.28;;;26.46;47.56
28630;BME280;15817;42.130;24.762;2022-07-06T00:05:39;99691.53;;;26.50;47.45
28630;BME280;15817;42.130;24.762;2022-07-06T00:08:04;99692.72;;;26.46;47.74
28630;BME280;15817;42.130;24.762;2022-07-06T00:10:30;99692.84;;;26.44;48.12
28630;BME280;15817;42.130;24.762;2022-07-06T00:12:56;99687.09;;;26.36;49.18
28630;BME280;15817;42.130;24.762;2022-07-06T00:15:22;99675.97;;;26.39;49.72
28630;BME280;15817;42.130;24.762;2022-07-06T00:17:48;99681.41;;;26.39;49.92
28630;BME280;15817;42.130;24.762;2022-07-06T00:20:17;99679.38;;;26.30;50.54
28630;BME280;15817;42.130;24.762;2022-07-06T00:22:43;99682.00;;;26.19;51.11
28630;BME280;15817;42.130;24.762;2022-07-06T00:25:09;99688.75;;;26.13;51.68
28630;BME280;15817;42.130;24.762;2022-07-06T00:27:37;99675.78;;;26.04;52.12
28630;BME280;15817;42.130;24.762;2022-07-06T00:30:05;99677.66;;;26.04;52.15
28630;BME280;15817;42.130;24.762;2022-07-06T00:32:32;99661.72;;;25.97;52.19
28630;BME280;15817;42.130;24.762;2022-07-06T00:41:18;99652.03;;;25.93;52.05
28630;BME280;15817;42.130;24.762;2022-07-06T00:43:54;99646.50;;;25.95;52.34
28630;BME280;15817;42.130;24.762;2022-07-06T00:46:28;99647.91;;;25.88;52.69
28630;BME280;15817;42.130;24.762;2022-07-06T00:48:56;99644.53;;;25.84;52.64
28630;BME280;15817;42.130;24.762;2022-07-06T00:51:30;99636.88;;;25.89;52.60
28630;BME280;15817;42.130;24.762;2022-07-06T00:53:59;99640.28;;;25.93;52.19
28630;BME280;15817;42.130;24.762;2022-07-06T00:56:29;99635.69;;;25.93;52.49
28630;BME280;15817;42.130;24.762;2022-07-06T00:58:59;99626.09;;;25.88;52.53
28630;BME280;15817;42.130;24.762;2022-07-06T01:01:25;99627.41;;;25.95;52.39
28630;BME280;15817;42.130;24.762;2022-07-06T01:03:51;99624.03;;;25.91;52.36
28630;BME280;15817;42.130;24.762;2022-07-06T01:06:17;99622.59;;;25.98;52.38
28630;BME280;15817;42.130;24.762;2022-07-06T01:08:43;99612.34;;;26.02;52.38
28630;BME280;15817;42.130;24.762;2022-07-06T01:11:09;99596.19;;;25.99;52.15
28630;BME280;15817;42.130;24.762;2022-07-06T01:13:38;99594.34;;;26.00;52.12
28630;BME280;15817;42.130;24.762;2022-07-06T01:16:04;99594.88;;;26.05;51.92
28630;BME280;15817;42.130;24.762;2022-07-06T01:18:30;99588.88;;;26.00;51.88
28630;BME280;15817;42.130;24.762;2022-07-06T01:21:13;99577.13;;;25.99;51.64
28630;BME280;15817;42.130;24.762;2022-07-06T01:23:43;99586.72;;;26.05;51.59
28630;BME280;15817;42.130;24.762;2022-07-06T01:26:17;99578.53;;;26.05;51.65
28630;BME280;15817;42.130;24.762;2022-07-06T01:28:48;99573.31;;;26.02;51.63
28630;BME280;15817;42.130;24.762;2022-07-06T01:31:19;99562.72;;;25.97;51.41
28630;BME280;15817;42.130;24.762;2022-07-06T01:33:45;99571.91;;;25.96;51.52
28630;BME280;15817;42.130;24.762;2022-07-06T01:36:11;99562.72;;;25.97;51.71
28630;BME280;15817;42.130;24.762;2022-07-06T01:38:54;99553.69;;;25.96;51.62
28630;BME280;15817;42.130;24.762;2022-07-06T01:41:20;99550.09;;;25.96;51.39
28630;BME280;15817;42.130;24.762;2022-07-06T01:43:47;99553.69;;;25.96;51.32
28630;BME280;15817;42.130;24.762;2022-07-06T01:46:13;99536.06;;;25.89;51.27
28630;BME280;15817;42.130;24.762;2022-07-06T01:48:39;99540.84;;;25.86;51.64
28630;BME280;15817;42.130;24.762;2022-07-06T01:51:05;99532.16;;;25.81;51.62
28630;BME280;15817;42.130;24.762;2022-07-06T01:53:32;99529.66;;;25.78;51.91
28630;BME280;15817;42.130;24.762;2022-07-06T01:55:59;99534.88;;;25.81;52.20
28630;BME280;15817;42.130;24.762;2022-07-06T01:58:29;99529.66;;;25.78;52.28
28630;BME280;15817;42.130;24.762;2022-07-06T02:00:54;99534.13;;;25.79;52.65
28630;BME280;15817;42.130;24.762;2022-07-06T02:03:20;99535.44;;;25.73;52.78
28630;BME280;15817;42.130;24.762;2022-07-06T02:05:46;99519.53;;;25.67;52.76
28630;BME280;15817;42.130;24.762;2022-07-06T02:08:12;99528.28;;;25.72;52.78
28630;BME280;15817;42.130;24.762;2022-07-06T02:10:39;99531.31;;;25.68;52.81
28630;BME280;15817;42.130;24.762;2022-07-06T02:13:06;99523.56;;;25.61;53.10
28630;BME280;15817;42.130;24.762;2022-07-06T02:15:32;99508.00;;;25.64;53.00
28630;BME280;15817;42.130;24.762;2022-07-06T02:17:58;99522.38;;;25.66;53.37
28630;BME280;15817;42.130;24.762;2022-07-06T02:20:23;99507.22;;;25.61;53.32
28630;BME280;15817;42.130;24.762;2022-07-06T02:22:49;99516.06;;;25.65;53.45
28630;BME280;15817;42.130;24.762;2022-07-06T02:25:15;99511.28;;;25.69;53.44
28630;BME280;15817;42.130;24.762;2022-07-06T02:27:41;99514.00;;;25.69;53.47
28630;BME280;15817;42.130;24.762;2022-07-06T02:30:09;99513.44;;;25.64;53.46
28630;BME280;15817;42.130;24.762;2022-07-06T02:32:36;99513.69;;;25.60;53.73
28630;BME280;15817;42.130;24.762;2022-07-06T02:35:03;99521.72;;;25.62;53.97
28630;BME280;15817;42.130;24.762;2022-07-06T02:37:29;99532.84;;;25.59;54.10
28630;BME280;15817;42.130;24.762;2022-07-06T02:39:55;99523.06;;;25.31;54.71
28630;BME280;15817;42.130;24.762;2022-07-06T02:42:20;99526.34;;;25.11;55.47
28630;BME280;15817;42.130;24.762;2022-07-06T02:44:46;99536.78;;;25.04;56.03
28630;BME280;15817;42.130;24.762;2022-07-06T02:47:12;99543.88;;;25.07;56.08
28630;BME280;15817;42.130;24.762;2022-07-06T02:49:38;99538.88;;;25.01;56.08
28630;BME280;15817;42.130;24.762;2022-07-06T02:52:04;99546.00;;;24.89;56.59
28630;BME280;15817;42.130;24.762;2022-07-06T02:54:31;99549.25;;;24.81;56.93
28630;BME280;15817;42.130;24.762;2022-07-06T02:56:57;99543.06;;;24.79;57.03
28630;BME280;15817;42.130;24.762;2022-07-06T02:59:28;99558.06;;;24.85;56.93
28630;BME280;15817;42.130;24.762;2022-07-06T03:01:54;99553.59;;;24.84;56.82
28630;BME280;15817;42.130;24.762;2022-07-06T03:04:21;99554.81;;;24.80;56.79
28630;BME280;15817;42.130;24.762;2022-07-06T03:06:46;99548.16;;;24.84;56.58
28630;BME280;15817;42.130;24.762;2022-07-06T03:09:13;99554.16;;;24.89;56.51
28630;BME280;15817;42.130;24.762;2022-07-06T03:11:39;99561.34;;;24.90;56.60
28630;BME280;15817;42.130;24.762;2022-07-06T03:14:05;99553.19;;;24.90;56.30
28630;BME280;15817;42.130;24.762;2022-07-06T03:16:34;99551.34;;;24.90;56.32
28630;BME280;15817;42.130;24.762;2022-07-06T03:19:00;99550.56;;;24.88;56.34
28630;BME280;15817;42.130;24.762;2022-07-06T03:21:26;99570.41;;;24.90;56.95
28630;BME280;15817;42.130;24.762;2022-07-06T03:23:52;99560.38;;;24.78;56.75
28630;BME280;15817;42.130;24.762;2022-07-06T03:26:18;99565.47;;;24.83;57.08
28630;BME280;15817;42.130;24.762;2022-07-06T03:28:45;99566.03;;;24.88;57.18
28630;BME280;15817;42.130;24.762;2022-07-06T03:31:11;99566.50;;;24.95;56.85
28630;BME280;15817;42.130;24.762;2022-07-06T03:33:37;99565.06;;;24.89;56.71
28630;BME280;15817;42.130;24.762;2022-07-06T03:36:03;99575.72;;;24.92;56.83
28630;BME280;15817;42.130;24.762;2022-07-06T03:38:31;99586.53;;;24.94;56.77
28630;BME280;15817;42.130;24.762;2022-07-06T03:40:59;99572.91;;;24.94;57.15
28630;BME280;15817;42.130;24.762;2022-07-06T03:43:25;99580.56;;;25.01;57.41
28630;BME280;15817;42.130;24.762;2022-07-06T03:45:52;99570.19;;;24.94;56.94
28630;BME280;15817;42.130;24.762;2022-07-06T03:48:19;99569.88;;;24.98;57.30
28630;BME280;15817;42.130;24.762;2022-07-06T03:50:46;99568.03;;;24.99;57.04
28630;BME280;15817;42.130;24.762;2022-07-06T03:53:12;99569.31;;;24.93;56.46
28630;BME280;15817;42.130;24.762;2022-07-06T03:55:41;99575.53;;;24.95;56.30
28630;BME280;15817;42.130;24.762;2022-07-06T03:58:09;99578.47;;;25.05;56.85
28630;BME280;15817;42.130;24.762;2022-07-06T04:00:38;99583.50;;;25.11;56.48
28630;BME280;15817;42.130;24.762;2022-07-06T04:03:08;99584.47;;;25.10;56.29
28630;BME280;15817;42.130;24.762;2022-07-06T04:05:41;99580.78;;;25.11;56.50
28630;BME280;15817;42.130;24.762;2022-07-06T04:08:07;99566.63;;;25.06;57.60
28630;BME280;15817;42.130;24.762;2022-07-06T04:10:38;99576.22;;;25.11;58.46
28630;BME280;15817;42.130;24.762;2022-07-06T04:13:08;99584.38;;;25.11;59.24
28630;BME280;15817;42.130;24.762;2022-07-06T04:15:34;99570.56;;;25.02;60.08
28630;BME280;15817;42.130;24.762;2022-07-06T04:18:00;99584.47;;;25.10;60.69
28630;BME280;15817;42.130;24.762;2022-07-06T04:20:30;99585.66;;;25.06;61.89
28630;BME280;15817;42.130;24.762;2022-07-06T04:22:57;99583.03;;;25.04;62.72
28630;BME280;15817;42.130;24.762;2022-07-06T04:25:25;99587.19;;;25.10;63.13
28630;BME280;15817;42.130;24.762;2022-07-06T04:27:51;99589.63;;;25.14;63.75
28630;BME280;15817;42.130;24.762;2022-07-06T04:30:18;99573.81;;;25.07;64.46
28630;BME280;15817;42.130;24.762;2022-07-06T04:32:46;99576.75;;;25.16;64.36
28630;BME280;15817;42.130;24.762;2022-07-06T04:35:13;99582.09;;;25.18;64.20
28630;BME280;15817;42.130;24.762;2022-07-06T04:37:40;99581.56;;;25.25;64.12
28630;BME280;15817;42.130;24.762;2022-07-06T04:40:12;99577.63;;;25.30;64.06
28630;BME280;15817;42.130;24.762;2022-07-06T04:42:38;99575.78;;;25.30;64.04
28630;BME280;15817;42.130;24.762;2022-07-06T04:45:05;99584.03;;;25.41;63.65
28630;BME280;15817;42.130;24.762;2022-07-06T04:47:31;99586.66;;;25.43;63.98
28630;BME280;15817;42.130;24.762;2022-07-06T04:49:57;99570.13;;;25.33;63.91
28630;BME280;15817;42.130;24.762;2022-07-06T04:52:23;99571.97;;;25.33;64.01
28630;BME280;15817;42.130;24.762;2022-07-06T04:54:51;99581.56;;;25.38;64.30
28630;BME280;15817;42.130;24.762;2022-07-06T04:57:17;99588.63;;;25.41;64.29
28630;BME280;15817;42.130;24.762;2022-07-06T04:59:42;99575.97;;;25.40;64.51
28630;BME280;15817;42.130;24.762;2022-07-06T05:02:12;99577.97;;;25.38;64.66
28630;BME280;15817;42.130;24.762;2022-07-06T05:04:40;99573.41;;;25.38;64.61
28630;BME280;15817;42.130;24.762;2022-07-06T05:07:06;99577.72;;;25.41;64.39
28630;BME280;15817;42.130;24.762;2022-07-06T05:09:32;99584.03;;;25.41;64.36
28630;BME280;15817;42.130;24.762;2022-07-06T05:11:59;99586.66;;;25.43;64.31
28630;BME280;15817;42.130;24.762;2022-07-06T05:14:25;99593.28;;;25.39;64.49
28630;BME280;15817;42.130;24.762;2022-07-06T05:16:52;99583.41;;;25.38;64.38
28630;BME280;15817;42.130;24.762;2022-07-06T05:19:19;99583.63;;;25.35;64.60
28630;BME280;15817;42.130;24.762;2022-07-06T05:21:45;99602.78;;;25.46;64.33
28630;BME280;15817;42.130;24.762;2022-07-06T05:24:21;99609.13;;;25.46;64.44
28630;BME280;15817;42.130;24.762;2022-07-06T05:26:47;99613.22;;;25.52;64.73
28630;BME280;15817;42.130;24.762;2022-07-06T05:29:16;99605.63;;;25.44;64.78
28630;BME280;15817;42.130;24.762;2022-07-06T05:31:44;99608.03;;;25.49;64.80
28630;BME280;15817;42.130;24.762;2022-07-06T05:34:19;99610.84;;;25.47;65.00
28630;BME280;15817;42.130;24.762;2022-07-06T05:36:48;99617.81;;;25.51;64.96
28630;BME280;15817;42.130;24.762;2022-07-06T05:39:14;99599.09;;;25.47;65.61
28630;BME280;15817;42.130;24.762;2022-07-06T05:41:45;99624.13;;;25.52;65.30
28630;BME280;15817;42.130;24.762;2022-07-06T05:44:12;99611.38;;;25.52;65.75
28630;BME280;15817;42.130;24.762;2022-07-06T05:46:46;99620.88;;;25.47;66.12
28630;BME280;15817;42.130;24.762;2022-07-06T05:49:13;99625.97;;;25.51;65.86
28630;BME280;15817;42.130;24.762;2022-07-06T06:07:14;99636.44;;;25.45;66.01
28630;BME280;15817;42.130;24.762;2022-07-06T06:09:40;99634.59;;;25.45;66.55
28630;BME280;15817;42.130;24.762;2022-07-06T06:12:09;99637.22;;;25.47;66.90
28630;BME280;15817;42.130;24.762;2022-07-06T06:14:35;99642.41;;;25.50;66.94
28630;BME280;15817;42.130;24.762;2022-07-06T06:17:04;99638.31;;;25.57;67.16
28630;BME280;15817;42.130;24.762;2022-07-06T06:19:34;99644.66;;;25.70;67.16
28630;BME280;15817;42.130;24.762;2022-07-06T06:22:04;99645.44;;;25.72;66.96
28630;BME280;15817;42.130;24.762;2022-07-06T06:24:38;99638.34;;;25.70;67.02
28630;BME280;15817;42.130;24.762;2022-07-06T06:27:11;99639.97;;;25.72;67.17
28630;BME280;15817;42.130;24.762;2022-07-06T06:29:38;99644.31;;;25.75;66.53
28630;BME280;15817;42.130;24.762;2022-07-06T06:32:04;99653.47;;;25.74;66.22
28630;BME280;15817;42.130;24.762;2022-07-06T06:34:31;99642.34;;;25.77;65.90
28630;BME280;15817;42.130;24.762;2022-07-06T06:36:59;99645.72;;;25.80;65.85
28630;BME280;15817;42.130;24.762;2022-07-06T06:39:28;99636.38;;;25.84;65.49
28630;BME280;15817;42.130;24.762;2022-07-06T06:41:54;99645.25;;;25.99;65.10
28630;BME280;15817;42.130;24.762;2022-07-06T06:44:20;99646.97;;;26.13;64.57
28630;BME280;15817;42.130;24.762;2022-07-06T06:46:55;99641.94;;;26.19;64.17
28630;BME280;15817;42.130;24.762;2022-07-06T06:49:24;99635.63;;;26.19;63.66
28630;BME280;15817;42.130;24.762;2022-07-06T06:51:50;99649.38;;;26.30;63.60
28630;BME280;15817;42.130;24.762;2022-07-06T06:54:16;99643.16;;;26.28;62.74
28630;BME280;15817;42.130;24.762;2022-07-06T06:56:42;99640.44;;;26.28;62.87
28630;BME280;15817;42.130;24.762;2022-07-06T06:59:08;99645.63;;;26.31;62.72
28630;BME280;15817;42.130;24.762;2022-07-06T07:01:33;99652.84;;;26.32;64.00
28630;BME280;15817;42.130;24.762;2022-07-06T07:03:59;99645.22;;;26.24;63.17
28630;BME280;15817;42.130;24.762;2022-07-06T07:06:25;99629.53;;;26.28;63.01
28630;BME280;15817;42.130;24.762;2022-07-06T07:08:51;99621.00;;;26.32;63.23
28630;BME280;15817;42.130;24.762;2022-07-06T07:11:19;99639.94;;;26.47;63.23
28630;BME280;15817;42.130;24.762;2022-07-06T07:13:45;99628.38;;;26.43;62.68
28630;BME280;15817;42.130;24.762;2022-07-06T07:16:11;99632.03;;;26.55;62.18
28630;BME280;15817;42.130;24.762;2022-07-06T07:18:39;99629.19;;;26.56;61.65
28630;BME280;15817;42.130;24.762;2022-07-06T07:21:05;99621.88;;;26.57;61.67
28630;BME280;15817;42.130;24.762;2022-07-06T07:23:31;99626.50;;;26.67;61.86
28630;BME280;15817;42.130;24.762;2022-07-06T07:25:59;99626.50;;;26.67;61.97
28630;BME280;15817;42.130;24.762;2022-07-06T07:28:25;99634.81;;;26.66;61.44
28630;BME280;15817;42.130;24.762;2022-07-06T07:30:51;99623.78;;;26.67;60.73
28630;BME280;15817;42.130;24.762;2022-07-06T07:33:17;99634.53;;;26.82;60.39
28630;BME280;15817;42.130;24.762;2022-07-06T07:35:44;99638.41;;;26.90;60.04
28630;BME280;15817;42.130;24.762;2022-07-06T07:38:12;99631.00;;;26.92;59.88
28630;BME280;15817;42.130;24.762;2022-07-06T07:40:38;99626.41;;;26.93;59.90
28630;BME280;15817;42.130;24.762;2022-07-06T07:50:01;99623.16;;;26.64;60.19
28630;BME280;15817;42.130;24.762;2022-07-06T07:52:27;99621.53;;;26.61;60.80
28630;BME280;15817;42.130;24.762;2022-07-06T07:57:55;99619.50;;;26.52;60.81
28630;BME280;15817;42.130;24.762;2022-07-06T08:00:46;99627.75;;;26.63;60.76
28630;BME280;15817;42.130;24.762;2022-07-06T08:07:44;99625.25;;;26.84;60.41
28630;BME280;15817;42.130;24.762;2022-07-06T08:11:17;99624.31;;;26.96;60.31
28630;BME280;15817;42.130;24.762;2022-07-06T08:14:24;99627.59;;;27.13;59.78
28630;BME280;15817;42.130;24.762;2022-07-06T08:17:11;99622.41;;;27.21;59.70
28630;BME280;15817;42.130;24.762;2022-07-06T08:23:10;99623.97;;;27.12;59.41
28630;BME280;15817;42.130;24.762;2022-07-06T08:25:47;99611.59;;;27.08;59.46
28630;BME280;15817;42.130;24.762;2022-07-06T08:31:37;99625.63;;;27.72;57.87
28630;BME280;15817;42.130;24.762;2022-07-06T08:34:47;99617.41;;;27.83;57.37
28630;BME280;15817;42.130;24.762;2022-07-06T08:37:16;99611.06;;;27.83;58.17
28630;BME280;15817;42.130;24.762;2022-07-06T08:40:13;99614.78;;;28.04;57.39
28630;BME280;15817;42.130;24.762;2022-07-06T08:42:49;99619.13;;;28.40;56.07
28630;BME280;15817;42.130;24.762;2022-07-06T08:45:49;99622.78;;;29.04;54.46
28630;BME280;15817;42.130;24.762;2022-07-06T08:48:16;99610.47;;;29.19;53.30
28630;BME280;15817;42.130;24.762;2022-07-06T08:51:01;99612.00;;;28.92;53.51
28630;BME280;15817;42.130;24.762;2022-07-06T08:53:33;99613.78;;;28.50;54.39
28630;BME280;15817;42.130;24.762;2022-07-06T08:56:02;99605.88;;;28.24;55.49
28630;BME280;15817;42.130;24.762;2022-07-06T08:58:41;99606.34;;;28.18;55.57
28630;BME280;15817;42.130;24.762;2022-07-06T09:01:11;99617.78;;;28.12;55.54
28630;BME280;15817;42.130;24.762;2022-07-06T09:07:10;99618.03;;;28.09;56.23
28630;BME280;15817;42.130;24.762;2022-07-06T09:09:43;99607.09;;;27.98;56.49
28630;BME280;15817;42.130;24.762;2022-07-06T09:12:13;99616.41;;;27.95;57.33
28630;BME280;15817;42.130;24.762;2022-07-06T09:14:39;99621.28;;;28.03;57.58
28630;BME280;15817;42.130;24.762;2022-07-06T09:17:06;99617.91;;;27.99;57.80
28630;BME280;15817;42.130;24.762;2022-07-06T09:20:11;99632.81;;;27.95;58.76
28630;BME280;15817;42.130;24.762;2022-07-06T09:22:46;99616.06;;;27.89;58.76
28630;BME280;15817;42.130;24.762;2022-07-06T09:25:24;99630.59;;;28.00;58.87
28630;BME280;15817;42.130;24.762;2022-07-06T09:27:57;99616.66;;;27.92;58.43
28630;BME280;15817;42.130;24.762;2022-07-06T09:30:35;99621.78;;;27.86;59.33
28630;BME280;15817;42.130;24.762;2022-07-06T09:33:07;99623.28;;;27.90;59.20
28630;BME280;15817;42.130;24.762;2022-07-06T09:35:39;99622.50;;;27.99;58.90
28630;BME280;15817;42.130;24.762;2022-07-06T09:38:14;99627.63;;;28.03;58.56
28630;BME280;15817;42.130;24.762;2022-07-06T09:40:42;99619.66;;;28.00;59.17
28630;BME280;15817;42.130;24.762;2022-07-06T09:43:15;99615.94;;;28.01;58.69
28630;BME280;15817;42.130;24.762;2022-07-06T09:45:44;99617.16;;;27.97;58.91
28630;BME280;15817;42.130;24.762;2022-07-06T09:48:18;99615.94;;;28.01;58.80
28630;BME280;15817;42.130;24.762;2022-07-06T09:50:58;99609.06;;;28.07;59.22
28630;BME280;15817;42.130;24.762;2022-07-06T09:53:26;99608.06;;;28.08;58.79
28630;BME280;15817;42.130;24.762;2022-07-06T09:55:54;99596.66;;;28.25;57.87
28630;BME280;15817;42.130;24.762;2022-07-06T09:58:21;99601.56;;;28.86;55.87
28630;BME280;15817;42.130;24.762;2022-07-06T10:00:48;99601.06;;;28.92;55.56
28630;BME280;15817;42.130;24.762;2022-07-06T10:03:17;99593.72;;;28.92;55.68
28630;BME280;15817;42.130;24.762;2022-07-06T10:05:47;99601.94;;;29.13;54.92
28630;BME280;15817;42.130;24.762;2022-07-06T10:08:16;99593.22;;;28.87;55.40
28630;BME280;15817;42.130;24.762;2022-07-06T10:10:46;99593.13;;;28.77;55.83
28630;BME280;15817;42.130;24.762;2022-07-06T10:13:15;99588.94;;;28.62;55.78
28630;BME280;15817;42.130;24.762;2022-07-06T10:15:45;99581.63;;;28.52;55.29
28630;BME280;15817;42.130;24.762;2022-07-06T10:18:11;99591.22;;;28.57;55.18
28630;BME280;15817;42.130;24.762;2022-07-06T10:20:41;99585.88;;;28.56;55.18
28630;BME280;15817;42.130;24.762;2022-07-06T10:23:12;99589.44;;;28.67;55.33
28630;BME280;15817;42.130;24.762;2022-07-06T10:25:47;99566.41;;;28.70;54.87
28630;BME280;15817;42.130;24.762;2022-07-06T10:28:17;99565.13;;;28.74;54.58
28630;BME280;15817;42.130;24.762;2022-07-06T10:30:44;99576.78;;;28.87;53.76
28630;BME280;15817;42.130;24.762;2022-07-06T10:33:14;99572.19;;;29.08;53.39
28630;BME280;15817;42.130;24.762;2022-07-06T10:35:41;99559.38;;;29.30;52.47
28630;BME280;15817;42.130;24.762;2022-07-06T10:38:09;99558.50;;;29.50;51.47
28630;BME280;15817;42.130;24.762;2022-07-06T10:40:39;99556.19;;;29.55;51.34
28630;BME280;15817;42.130;24.762;2022-07-06T10:43:31;99543.75;;;29.81;49.99
28630;BME280;15817;42.130;24.762;2022-07-06T10:45:58;99549.66;;;30.17;48.60
28630;BME280;15817;42.130;24.762;2022-07-06T10:48:24;99550.47;;;30.67;47.08
28630;BME280;15817;42.130;24.762;2022-07-06T10:53:21;99546.38;;;30.42;47.87
28630;BME280;15817;42.130;24.762;2022-07-06T10:55:51;99551.03;;;30.61;47.57
28630;BME280;15817;42.130;24.762;2022-07-06T11:01:02;99546.28;;;31.02;45.16
28630;BME280;15817;42.130;24.762;2022-07-06T11:03:42;99551.50;;;30.76;44.92
28630;BME280;15817;42.130;24.762;2022-07-06T11:06:15;99547.16;;;30.54;47.20
28630;BME280;15817;42.130;24.762;2022-07-06T11:08:49;99543.78;;;30.50;47.44
28630;BME280;15817;42.130;24.762;2022-07-06T11:11:37;99535.41;;;30.33;47.79
28630;BME280;15817;42.130;24.762;2022-07-06T11:14:23;99532.78;;;30.21;47.35
28630;BME280;15817;42.130;24.762;2022-07-06T11:19:24;99532.22;;;30.37;46.06
28630;BME280;15817;42.130;24.762;2022-07-06T11:22:07;99529.66;;;30.45;45.30
28630;BME280;15817;42.130;24.762;2022-07-06T11:24:38;99517.94;;;30.72;44.87
28630;BME280;15817;42.130;24.762;2022-07-06T11:27:05;99525.63;;;30.69;43.62
28630;BME280;15817;42.130;24.762;2022-07-06T11:29:39;99526.94;;;30.55;43.88
28630;BME280;15817;42.130;24.762;2022-07-06T11:32:10;99530.66;;;30.44;43.13
28630;BME280;15817;42.130;24.762;2022-07-06T11:34:39;99530.19;;;30.39;43.55
28630;BME280;15817;42.130;24.762;2022-07-06T11:37:07;99531.81;;;30.61;44.14
28630;BME280;15817;42.130;24.762;2022-07-06T11:39:36;99517.47;;;31.06;43.44
28630;BME280;15817;42.130;24.762;2022-07-06T11:42:09;99507.13;;;30.80;43.49
28630;BME280;15817;42.130;24.762;2022-07-06T11:44:39;99505.22;;;30.71;44.12
28630;BME280;15817;42.130;24.762;2022-07-06T11:47:09;99511.00;;;30.58;44.62
28630;BME280;15817;42.130;24.762;2022-07-06T11:49:37;99508.09;;;30.41;43.90
28630;BME280;15817;42.130;24.762;2022-07-06T11:52:13;99507.66;;;30.26;44.84
28630;BME280;15817;42.130;24.762;2022-07-06T11:54:40;99504.50;;;30.21;44.14
28630;BME280;15817;42.130;24.762;2022-07-06T11:57:10;99500.47;;;30.54;43.88
28630;BME280;15817;42.130;24.762;2022-07-06T11:59:41;99492.66;;;30.59;43.59
28630;BME280;15817;42.130;24.762;2022-07-06T12:02:13;99500.63;;;30.62;43.28
28630;BME280;15817;42.130;24.762;2022-07-06T12:04:41;99492.34;;;30.52;43.72
28630;BME280;15817;42.130;24.762;2022-07-06T12:07:15;99484.13;;;30.72;43.70
28630;BME280;15817;42.130;24.762;2022-07-06T12:09:45;99479.31;;;30.93;42.84
28630;BME280;15817;42.130;24.762;2022-07-06T12:12:14;99479.91;;;30.87;43.09
28630;BME280;15817;42.130;24.762;2022-07-06T12:15:13;99480.50;;;30.81;44.00
28630;BME280;15817;42.130;24.762;2022-07-06T12:17:47;99477.50;;;30.65;43.11
28630;BME280;15817;42.130;24.762;2022-07-06T12:20:24;99478.53;;;30.54;43.57
28630;BME280;15817;42.130;24.762;2022-07-06T12:23:03;99472.69;;;30.47;43.56
28630;BME280;15817;42.130;24.762;2022-07-06T12:25:37;99475.31;;;30.39;43.79
28630;BME280;15817;42.130;24.762;2022-07-06T12:28:03;99477.78;;;30.42;43.95
28630;BME280;15817;42.130;24.762;2022-07-06T12:30:29;99478.47;;;30.83;42.51
28630;BME280;15817;42.130;24.762;2022-07-06T12:33:15;99468.16;;;31.04;42.52
28630;BME280;15817;42.130;24.762;2022-07-06T12:35:42;99478.03;;;31.44;41.27
28630;BME280;15817;42.130;24.762;2022-07-06T12:38:08;99467.41;;;31.58;41.09
28630;BME280;15817;42.130;24.762;2022-07-06T12:40:37;99467.78;;;31.73;41.51
28630;BME280;15817;42.130;24.762;2022-07-06T12:43:06;99466.22;;;31.71;41.14
28630;BME280;15817;42.130;24.762;2022-07-06T12:45:41;99458.22;;;31.40;40.66
28630;BME280;15817;42.130;24.762;2022-07-06T12:48:11;99464.72;;;31.49;40.72
28630;BME280;15817;42.130;24.762;2022-07-06T12:50:38;99469.44;;;31.56;40.96
28630;BME280;15817;42.130;24.762;2022-07-06T12:53:06;99449.47;;;31.54;40.74
28630;BME280;15817;42.130;24.762;2022-07-06T12:55:40;99453.63;;;31.31;40.95
28630;BME280;15817;42.130;24.762;2022-07-06T12:58:17;99448.44;;;31.28;40.49
28630;BME280;15817;42.130;24.762;2022-07-06T13:00:44;99437.25;;;31.39;41.12
28630;BME280;15817;42.130;24.762;2022-07-06T13:03:14;99443.88;;;31.74;40.28
28630;BME280;15817;42.130;24.762;2022-07-06T13:05:40;99441.56;;;31.79;40.25
28630;BME280;15817;42.130;24.762;2022-07-06T13:08:14;99456.13;;;31.61;41.36
28630;BME280;15817;42.130;24.762;2022-07-06T13:10:40;99453.50;;;31.60;41.50
28630;BME280;15817;42.130;24.762;2022-07-06T13:13:08;99439.19;;;31.56;41.49
28630;BME280;15817;42.130;24.762;2022-07-06T13:15:41;99435.41;;;31.30;41.41
28630;BME280;15817;42.130;24.762;2022-07-06T13:18:11;99437.63;;;31.17;42.06
28630;BME280;15817;42.130;24.762;2022-07-06T13:20:39;99447.91;;;31.05;42.06
28630;BME280;15817;42.130;24.762;2022-07-06T13:23:07;99434.38;;;30.84;41.36
28630;BME280;15817;42.130;24.762;2022-07-06T13:25:33;99445.66;;;30.81;41.26
28630;BME280;15817;42.130;24.762;2022-07-06T13:27:59;99444.38;;;30.76;41.16
28630;BME280;15817;42.130;24.762;2022-07-06T13:30:27;99442.66;;;30.75;42.02
28630;BME280;15817;42.130;24.762;2022-07-06T13:32:53;99434.72;;;30.62;41.70
28630;BME280;15817;42.130;24.762;2022-07-06T13:35:19;99423.31;;;30.57;42.05
28630;BME280;15817;42.130;24.762;2022-07-06T13:37:48;99429.38;;;30.60;41.83
28630;BME280;15817;42.130;24.762;2022-07-06T13:40:18;99422.59;;;30.65;42.14
28630;BME280;15817;42.130;24.762;2022-07-06T13:42:44;99424.88;;;30.69;42.76
28630;BME280;15817;42.130;24.762;2022-07-06T13:45:11;99415.22;;;30.65;43.33
28630;BME280;15817;42.130;24.762;2022-07-06T13:47:37;99408.84;;;30.65;44.04
28630;BME280;15817;42.130;24.762;2022-07-06T13:50:02;99420.97;;;30.72;43.95
28630;BME280;15817;42.130;24.762;2022-07-06T13:52:28;99409.25;;;30.70;44.42
28630;BME280;15817;42.130;24.762;2022-07-06T13:54:54;99413.31;;;30.75;44.49
28630;BME280;15817;42.130;24.762;2022-07-06T13:57:20;99405.34;;;30.72;44.16